createdAt,value
2017-11-03T00:00:45.805Z,25.53
2017-11-03T00:03:12.203Z,24.43
2017-11-03T00:05:38.846Z,25.23
2017-11-03T00:08:05.999Z,23.33
2017-11-03T00:10:33.256Z,26.17
2017-11-03T00:12:59.507Z,24.63
2017-11-03T00:15:25.767Z,25.33
2017-11-03T00:17:52.800Z,24.80
2017-11-03T00:20:27.026Z,24.77
2017-11-03T00:22:54.333Z,25.20
2017-11-03T00:25:20.616Z,25.67
2017-11-03T00:27:47.625Z,27.03
2017-11-03T00:30:13.962Z,25.23
2017-11-03T00:32:40.350Z,24.70
2017-11-03T00:35:06.620Z,27.23
2017-11-03T00:37:32.887Z,25.17
2017-11-03T00:40:00.776Z,28.50
2017-11-03T00:42:27.047Z,24.27
2017-11-03T00:44:54.295Z,26.40
2017-11-03T00:47:20.771Z,25.73
2017-11-03T00:49:47.048Z,25.00
2017-11-03T00:52:13.524Z,27.00
2017-11-03T00:54:40.547Z,28.10
2017-11-03T00:57:06.943Z,26.37
2017-11-03T00:59:33.280Z,27.90
2017-11-03T01:01:59.648Z,25.97
2017-11-03T01:04:26.013Z,27.70
2017-11-03T01:06:53.178Z,27.33
2017-11-03T01:09:19.452Z,28.00
2017-11-03T01:11:47.214Z,27.77
2017-11-03T01:14:13.465Z,28.60
2017-11-03T01:16:39.718Z,27.33
2017-11-03T01:19:06.918Z,27.47
2017-11-03T01:21:33.509Z,27.70
2017-11-03T01:23:59.773Z,26.40
2017-11-03T01:26:26.069Z,27.77
2017-11-03T01:28:52.399Z,28.93
2017-11-03T01:31:18.675Z,28.27
2017-11-03T01:33:45.212Z,28.23
2017-11-03T01:36:11.516Z,27.13
2017-11-03T01:38:37.827Z,26.07
2017-11-03T01:41:04.047Z,30.43
2017-11-03T01:43:31.938Z,30.33
2017-11-03T01:45:58.259Z,27.47
2017-11-03T01:48:24.547Z,30.30
2017-11-03T01:50:50.836Z,28.80
2017-11-03T01:53:17.284Z,27.93
2017-11-03T01:55:43.556Z,29.00
2017-11-03T01:58:09.808Z,29.30
2017-11-03T02:00:36.074Z,28.30
2017-11-03T02:03:02.305Z,27.63
2017-11-03T02:05:28.552Z,25.73
2017-11-03T02:07:54.806Z,29.00
2017-11-03T02:10:21.060Z,27.60
2017-11-03T02:12:47.335Z,29.80
2017-11-03T02:15:13.592Z,27.20
2017-11-03T02:17:40.918Z,30.70
2017-11-03T02:20:07.277Z,28.17
2017-11-03T02:22:34.296Z,30.43
2017-11-03T02:25:00.563Z,32.60
2017-11-03T02:27:27.581Z,29.83
2017-11-03T02:29:53.825Z,29.63
2017-11-03T02:32:20.097Z,29.40
2017-11-03T02:34:46.336Z,31.83
2017-11-03T02:37:13.481Z,32.40
2017-11-03T02:39:39.753Z,32.40
2017-11-03T02:42:06.025Z,30.97
2017-11-03T02:44:32.293Z,32.00
2017-11-03T02:46:58.725Z,32.57
2017-11-03T02:49:25.011Z,30.90
2017-11-03T02:51:51.267Z,31.13
2017-11-03T02:54:17.533Z,32.63
2017-11-03T02:56:43.832Z,32.30
2017-11-03T02:59:10.085Z,32.00
2017-11-03T03:01:36.345Z,30.67
2017-11-03T03:04:13.307Z,32.90
2017-11-03T03:06:41.030Z,33.83
2017-11-03T03:09:07.281Z,34.20
2017-11-03T03:11:33.535Z,31.90
2017-11-03T03:14:00.514Z,33.83
2017-11-03T03:16:26.747Z,33.60
2017-11-03T03:18:52.973Z,33.50
2017-11-03T03:21:19.229Z,32.07
2017-11-03T03:23:45.536Z,33.20
2017-11-03T03:26:11.774Z,30.90
2017-11-03T03:28:38.020Z,31.90
2017-11-03T03:31:04.313Z,29.83
2017-11-03T03:33:31.307Z,31.27
2017-11-03T03:35:57.566Z,32.33
2017-11-03T03:38:23.961Z,30.87
2017-11-03T03:40:50.217Z,30.50
2017-11-03T03:43:16.488Z,31.00
2017-11-03T03:45:42.773Z,31.40
2017-11-03T03:48:09.873Z,30.53
2017-11-03T03:50:36.108Z,31.00
2017-11-03T03:53:02.465Z,30.60
2017-11-03T03:55:28.700Z,29.80
2017-11-03T03:57:54.926Z,30.50
2017-11-03T04:00:21.207Z,31.67
2017-11-03T04:02:48.187Z,32.13
2017-11-03T04:05:14.463Z,30.10
2017-11-03T04:07:40.715Z,32.73
2017-11-03T04:10:07.794Z,32.20
2017-11-03T04:12:34.058Z,33.80
2017-11-03T04:15:00.299Z,29.93
2017-11-03T04:17:28.049Z,32.50
2017-11-03T04:19:54.303Z,33.30
2017-11-03T04:22:21.328Z,33.67
2017-11-03T04:24:47.743Z,30.77
2017-11-03T04:27:13.959Z,33.80
2017-11-03T04:29:40.229Z,34.60
2017-11-03T04:32:06.618Z,32.30
2017-11-03T04:34:32.850Z,31.57
2017-11-03T04:36:59.092Z,32.60
2017-11-03T04:39:25.384Z,33.00
2017-11-03T04:41:51.750Z,34.63
2017-11-03T04:44:17.992Z,35.20
2017-11-03T04:46:44.231Z,32.40
2017-11-03T04:49:10.462Z,34.13
2017-11-03T04:51:36.754Z,32.57
2017-11-03T04:54:03.044Z,32.40
2017-11-03T04:56:30.108Z,34.63
2017-11-03T04:58:58.017Z,34.67
2017-11-03T05:01:24.306Z,34.90
2017-11-03T05:03:50.641Z,34.27
2017-11-03T05:06:17.069Z,33.83
2017-11-03T05:08:44.877Z,33.97
2017-11-03T05:11:11.121Z,32.43
2017-11-03T05:13:38.438Z,33.37
2017-11-03T05:16:04.713Z,34.40
2017-11-03T05:18:31.736Z,32.80
2017-11-03T05:20:58.004Z,36.63
2017-11-03T05:23:25.036Z,36.47
2017-11-03T05:25:51.314Z,34.53
2017-11-03T05:28:17.576Z,35.20
2017-11-03T05:30:43.860Z,39.10
2017-11-03T05:33:11.130Z,35.60
2017-11-03T05:35:38.252Z,34.07
2017-11-03T05:38:05.349Z,36.23
2017-11-03T05:40:31.669Z,34.97
2017-11-03T05:42:57.975Z,36.90
2017-11-03T05:45:24.304Z,36.70
2017-11-03T05:47:51.316Z,33.70
2017-11-03T05:50:17.649Z,35.77
2017-11-03T05:52:43.936Z,37.97
2017-11-03T05:55:10.319Z,35.87
2017-11-03T05:57:37.523Z,34.33
2017-11-03T06:00:03.781Z,32.63
2017-11-03T06:02:30.055Z,34.80
2017-11-03T06:04:57.063Z,31.87
2017-11-03T06:07:23.324Z,30.57
2017-11-03T06:09:50.390Z,31.27
2017-11-03T06:12:16.846Z,31.53
2017-11-03T06:14:43.126Z,29.03
2017-11-03T06:17:10.183Z,32.20
2017-11-03T06:19:37.475Z,30.77
2017-11-03T06:22:04.547Z,30.90
2017-11-03T06:24:31.733Z,29.60
2017-11-03T06:26:58.724Z,29.63
2017-11-03T06:29:25.044Z,29.73
2017-11-03T06:31:52.341Z,30.23
2017-11-03T06:34:18.612Z,30.40
2017-11-03T06:36:45.637Z,30.60
2017-11-03T06:39:11.896Z,31.63
2017-11-03T06:41:38.269Z,30.03
2017-11-03T06:44:04.496Z,29.63
2017-11-03T06:46:30.765Z,30.10
2017-11-03T06:48:57.812Z,31.20
2017-11-03T06:51:24.880Z,28.47
2017-11-03T06:53:51.204Z,28.30
2017-11-03T06:56:18.200Z,28.73
2017-11-03T06:58:44.446Z,29.83
2017-11-03T07:01:10.746Z,27.47
2017-11-03T07:03:37.042Z,28.90
2017-11-03T07:06:04.065Z,28.23
2017-11-03T07:08:30.320Z,28.13
2017-11-03T07:10:57.345Z,29.73
2017-11-03T07:13:24.328Z,29.90
2017-11-03T07:15:50.613Z,29.57
2017-11-03T07:18:16.884Z,27.57
2017-11-03T07:20:43.174Z,30.27
2017-11-03T07:23:09.449Z,31.70
2017-11-03T07:25:35.842Z,29.50
2017-11-03T07:28:02.091Z,27.80
2017-11-03T07:30:30.073Z,29.30
2017-11-03T07:32:56.466Z,29.77
2017-11-03T07:35:22.722Z,28.57
2017-11-03T07:37:49.718Z,28.40
2017-11-03T07:40:16.015Z,29.60
2017-11-03T07:42:42.330Z,27.03
2017-11-03T07:45:09.606Z,28.00
2017-11-03T07:47:36.050Z,28.73
2017-11-03T07:50:02.347Z,30.33
2017-11-03T07:52:29.338Z,27.97
2017-11-03T07:54:55.624Z,29.90
2017-11-03T07:57:22.636Z,28.23
2017-11-03T07:59:48.903Z,29.47
2017-11-03T08:02:15.925Z,29.00
2017-11-03T08:04:43.089Z,29.47
2017-11-03T08:07:10.096Z,26.73
2017-11-03T08:09:36.404Z,28.13
2017-11-03T08:12:02.839Z,26.20
2017-11-03T08:14:29.151Z,26.50
2017-11-03T08:16:55.447Z,25.73
2017-11-03T08:19:21.773Z,25.73
2017-11-03T08:21:48.796Z,24.43
2017-11-03T08:24:15.068Z,25.83
2017-11-03T08:26:42.079Z,25.97
2017-11-03T08:29:08.561Z,24.53
2017-11-03T08:31:35.582Z,26.83
2017-11-03T08:34:02.695Z,26.03
2017-11-03T08:36:29.030Z,23.80
2017-11-03T08:38:55.292Z,25.50
2017-11-03T08:41:21.605Z,25.50
2017-11-03T08:43:48.020Z,25.63
2017-11-03T08:46:14.337Z,24.90
2017-11-03T08:48:40.778Z,24.17
2017-11-03T08:51:07.202Z,25.20
2017-11-03T08:53:33.552Z,24.83
2017-11-03T08:56:00.003Z,22.73
2017-11-03T08:58:26.326Z,22.57
2017-11-03T09:00:52.671Z,24.90
2017-11-03T09:03:19.062Z,21.17
2017-11-03T09:05:45.426Z,23.40
2017-11-03T09:08:11.744Z,22.23
2017-11-03T09:10:38.049Z,22.37
2017-11-03T09:13:04.784Z,22.70
2017-11-03T09:15:31.845Z,23.73
2017-11-03T09:17:58.277Z,21.67
2017-11-03T09:20:24.768Z,22.57
2017-11-03T09:22:51.196Z,19.20
2017-11-03T09:25:17.567Z,19.90
2017-11-03T09:27:44.658Z,19.53
2017-11-03T09:30:11.043Z,19.70
2017-11-03T09:32:38.113Z,17.20
2017-11-03T09:35:04.441Z,17.43
2017-11-03T09:37:30.797Z,16.07
2017-11-03T09:39:57.165Z,18.00
2017-11-03T09:42:23.456Z,16.77
2017-11-03T09:44:49.852Z,14.67
2017-11-03T09:47:17.206Z,17.50
2017-11-03T09:49:44.337Z,13.97
2017-11-03T09:52:10.657Z,13.80
2017-11-03T09:54:36.960Z,15.67
2017-11-03T09:57:03.477Z,14.43
2017-11-03T09:59:29.802Z,13.53
2017-11-03T10:01:56.153Z,14.20
2017-11-03T10:04:22.500Z,13.93
2017-11-03T10:06:48.976Z,12.53
2017-11-03T10:11:50.389Z,13.37
2017-11-03T10:14:16.726Z,11.70
2017-11-03T10:16:43.026Z,11.87
2017-11-03T10:19:09.356Z,10.33
2017-11-03T10:21:36.266Z,9.40
2017-11-03T10:24:02.643Z,7.20
2017-11-03T10:26:28.964Z,7.47
2017-11-03T10:28:55.288Z,8.50
2017-11-03T10:31:21.661Z,8.37
2017-11-03T10:33:48.001Z,7.40
2017-11-03T10:36:14.283Z,5.97
2017-11-03T10:38:40.630Z,6.80
2017-11-03T10:41:06.924Z,7.23
2017-11-03T10:43:33.239Z,6.50
2017-11-03T10:46:01.089Z,6.40
2017-11-03T10:48:27.475Z,7.20
2017-11-03T10:50:53.936Z,9.00
2017-11-03T10:53:20.202Z,9.50
2017-11-03T10:55:46.556Z,7.20
2017-11-03T10:58:13.613Z,7.40
2017-11-03T11:00:41.297Z,6.50
2017-11-03T11:03:07.668Z,8.83
2017-11-03T11:05:33.973Z,9.47
2017-11-03T11:08:01.139Z,8.47
2017-11-03T11:10:27.482Z,8.30
2017-11-03T11:12:54.588Z,9.37
2017-11-03T11:15:20.896Z,9.73
2017-11-03T11:17:47.928Z,12.33
2017-11-03T11:20:14.241Z,10.73
2017-11-03T11:22:40.508Z,9.77
2017-11-03T11:25:07.548Z,9.00
2017-11-03T11:27:34.577Z,8.20
2017-11-03T11:30:00.859Z,8.33
2017-11-03T11:32:27.157Z,8.13
2017-11-03T11:34:54.163Z,7.97
2017-11-03T11:37:20.462Z,7.23
2017-11-03T11:39:46.731Z,6.90
2017-11-03T11:42:13.073Z,8.10
2017-11-03T11:44:39.383Z,9.17
2017-11-03T11:47:05.720Z,8.90
2017-11-03T11:49:32.075Z,9.63
2017-11-03T11:51:59.088Z,9.40
2017-11-03T11:54:25.428Z,11.07
2017-11-03T11:56:51.859Z,11.30
2017-11-03T11:59:18.362Z,9.87
2017-11-03T12:01:44.694Z,9.90
2017-11-03T12:04:11.020Z,11.70
2017-11-03T12:06:37.310Z,10.13
2017-11-03T12:09:03.586Z,9.30
2017-11-03T12:11:29.928Z,9.97
2017-11-03T12:13:56.206Z,10.00
2017-11-03T12:16:23.981Z,9.90
2017-11-03T12:18:51.100Z,9.57
2017-11-03T12:21:17.399Z,11.00
2017-11-03T12:23:43.688Z,10.97
2017-11-03T12:26:10.878Z,11.00
2017-11-03T12:28:37.203Z,12.73
2017-11-03T12:31:03.573Z,11.50
2017-11-03T12:33:30.772Z,11.93
2017-11-03T12:35:57.854Z,11.13
2017-11-03T12:38:24.259Z,11.60
2017-11-03T12:40:53.482Z,12.77
2017-11-03T12:43:19.785Z,10.63
2017-11-03T12:45:46.092Z,10.60
2017-11-03T12:48:13.172Z,10.30
2017-11-03T12:50:39.513Z,11.50
2017-11-03T12:53:05.842Z,10.43
2017-11-03T12:55:32.276Z,11.00
2017-11-03T12:57:58.601Z,10.53
2017-11-03T13:00:25.408Z,11.30
2017-11-03T13:02:52.449Z,11.07
2017-11-03T13:05:19.505Z,11.57
2017-11-03T13:07:47.312Z,10.70
2017-11-03T13:10:13.639Z,11.20
2017-11-03T13:12:40.009Z,10.80
2017-11-03T13:15:06.343Z,10.17
2017-11-03T13:17:32.771Z,10.73
2017-11-03T13:19:59.129Z,11.70
2017-11-03T13:22:26.240Z,11.77
2017-11-03T13:24:52.575Z,11.00
2017-11-03T13:27:19.142Z,10.10
2017-11-03T13:29:45.463Z,8.53
2017-11-03T13:32:11.848Z,9.40
2017-11-03T13:34:38.268Z,10.90
2017-11-03T13:37:05.360Z,9.60
2017-11-03T13:39:31.709Z,8.80
2017-11-03T13:41:58.120Z,10.00
2017-11-03T13:44:24.417Z,8.63
2017-11-03T13:46:50.791Z,11.50
2017-11-03T13:49:17.125Z,8.70
2017-11-03T13:51:43.468Z,9.30
2017-11-03T13:54:10.798Z,8.77
2017-11-03T13:56:37.129Z,10.53
2017-11-03T13:59:03.577Z,11.20
2017-11-03T14:01:30.916Z,12.50
2017-11-03T14:03:57.249Z,11.83
2017-11-03T14:06:23.677Z,13.20
2017-11-03T14:08:50.106Z,12.40
2017-11-03T14:11:16.665Z,11.07
2017-11-03T14:13:42.983Z,12.13
2017-11-03T14:16:11.784Z,10.70
2017-11-03T14:18:38.096Z,12.00
2017-11-03T14:21:04.474Z,11.70
2017-11-03T14:23:31.630Z,12.10
2017-11-03T14:25:58.295Z,8.90
2017-11-03T14:28:24.736Z,12.80
2017-11-03T14:30:51.158Z,12.23
2017-11-03T14:33:17.507Z,12.70
2017-11-03T14:35:43.865Z,13.00
2017-11-03T14:38:10.632Z,12.80
2017-11-03T14:40:37.742Z,11.07
2017-11-03T14:43:04.420Z,12.77
2017-11-03T14:45:31.093Z,12.60
2017-11-03T14:47:57.458Z,12.47
2017-11-03T14:50:23.777Z,12.50
2017-11-03T14:52:50.258Z,11.40
2017-11-03T14:55:16.713Z,13.67
2017-11-03T14:57:43.229Z,13.47
2017-11-03T15:00:09.619Z,11.73
2017-11-03T15:02:36.017Z,12.27
2017-11-03T15:05:02.441Z,12.80
2017-11-03T15:07:29.584Z,13.00
2017-11-03T15:09:56.825Z,11.33
2017-11-03T15:12:23.377Z,12.40
2017-11-03T15:14:49.779Z,12.87
2017-11-03T15:17:16.294Z,13.03
2017-11-03T15:19:43.040Z,11.27
2017-11-03T15:22:09.525Z,13.27
2017-11-03T15:24:36.716Z,10.30
2017-11-03T15:27:03.049Z,11.90
2017-11-03T15:29:29.331Z,11.50
2017-11-03T15:31:55.654Z,11.17
2017-11-03T15:34:23.085Z,11.97
2017-11-03T15:36:50.072Z,12.60
2017-11-03T15:39:17.413Z,13.27
2017-11-03T15:41:44.549Z,13.77
2017-11-03T15:44:10.881Z,14.10
2017-11-03T15:46:37.216Z,17.73
2017-11-03T15:49:03.620Z,20.87
2017-11-03T15:51:31.007Z,20.83
2017-11-03T15:53:57.407Z,19.67
2017-11-03T15:56:23.939Z,19.90
2017-11-03T15:58:50.366Z,21.60
2017-11-03T16:01:16.805Z,21.90
2017-11-03T16:03:43.147Z,27.17
2017-11-03T16:06:09.596Z,28.40
2017-11-03T16:08:36.002Z,26.30
2017-11-03T16:11:02.361Z,22.90
2017-11-03T16:13:28.909Z,31.00
2017-11-03T16:15:55.304Z,26.97
2017-11-03T16:18:21.706Z,27.13
2017-11-03T16:20:48.831Z,34.77
2017-11-03T16:23:15.316Z,38.43
2017-11-03T16:25:41.712Z,47.83
2017-11-03T16:28:08.805Z,50.83
2017-11-03T16:30:35.181Z,54.07
2017-11-03T16:33:01.679Z,38.67
2017-11-03T16:35:28.389Z,38.37
2017-11-03T16:37:55.649Z,29.83
2017-11-03T16:40:22.006Z,35.50
2017-11-03T16:42:48.667Z,41.73
2017-11-03T16:45:15.834Z,39.57
2017-11-03T16:47:42.162Z,40.37
2017-11-03T16:50:08.638Z,35.17
2017-11-03T16:52:34.962Z,25.50
2017-11-03T16:55:01.340Z,23.90
2017-11-03T16:57:27.731Z,26.30
2017-11-03T16:59:54.307Z,30.40
2017-11-03T17:02:20.654Z,29.73
2017-11-03T17:04:46.958Z,44.00
2017-11-03T17:07:13.302Z,37.90
2017-11-03T17:09:39.632Z,42.10
2017-11-03T17:12:06.037Z,38.70
2017-11-03T17:14:33.366Z,32.40
2017-11-03T17:17:00.476Z,36.93
2017-11-03T17:19:26.857Z,33.67
2017-11-03T17:21:53.343Z,30.20
2017-11-03T17:24:19.974Z,26.10
2017-11-03T17:26:46.332Z,21.30
2017-11-03T17:29:13.657Z,22.47
2017-11-03T17:31:40.015Z,20.50
2017-11-03T17:34:07.100Z,24.00
2017-11-03T17:36:33.463Z,24.70
2017-11-03T17:38:59.848Z,20.63
2017-11-03T17:41:27.046Z,21.43
2017-11-03T17:43:53.722Z,22.77
2017-11-03T17:46:21.005Z,24.17
2017-11-03T17:48:47.608Z,22.27
2017-11-03T17:51:13.886Z,24.83
2017-11-03T17:53:40.507Z,22.77
2017-11-03T17:56:07.703Z,24.23
2017-11-03T17:58:34.493Z,24.43
2017-11-03T18:01:01.681Z,19.57
2017-11-03T18:03:28.171Z,19.80
2017-11-03T18:05:55.387Z,19.93
2017-11-03T18:08:21.785Z,28.90
2017-11-03T18:10:48.166Z,26.27
2017-11-03T18:13:16.094Z,27.43
2017-11-03T18:15:42.489Z,24.17
2017-11-03T18:18:09.563Z,27.83
2017-11-03T18:20:35.956Z,25.67
2017-11-03T18:23:02.256Z,25.67
2017-11-03T18:25:28.788Z,27.17
2017-11-03T18:27:55.244Z,29.40
2017-11-03T18:30:22.284Z,28.10
2017-11-03T18:32:49.251Z,27.30
2017-11-03T18:35:16.563Z,25.60
2017-11-03T18:37:48.359Z,25.97
2017-11-03T18:40:14.833Z,23.40
2017-11-03T18:42:41.262Z,24.40
2017-11-03T18:45:08.812Z,23.77
2017-11-03T18:47:35.908Z,22.33
2017-11-03T18:50:03.010Z,25.93
2017-11-03T18:52:30.262Z,26.17
2017-11-03T18:54:57.798Z,25.23
2017-11-03T18:57:24.349Z,25.13
2017-11-03T18:59:51.428Z,25.50
2017-11-03T19:02:19.960Z,27.03
2017-11-03T19:04:46.363Z,26.33
2017-11-03T19:07:12.800Z,25.43
2017-11-03T19:09:39.538Z,24.23
2017-11-03T19:12:06.062Z,27.10
2017-11-03T19:14:32.440Z,24.93
2017-11-03T19:16:58.821Z,23.33
2017-11-03T19:19:25.285Z,24.67
2017-11-03T19:21:51.699Z,24.63
2017-11-03T19:24:18.122Z,23.03
2017-11-03T19:26:44.511Z,24.43
2017-11-03T19:29:11.553Z,24.47
2017-11-03T19:31:38.042Z,25.47
2017-11-03T19:34:04.380Z,23.47
2017-11-03T19:36:31.139Z,23.60
2017-11-03T19:38:57.511Z,24.40
2017-11-03T19:41:24.632Z,23.43
2017-11-03T19:43:50.953Z,24.07
2017-11-03T19:46:17.328Z,22.17
2017-11-03T19:48:44.496Z,22.47
2017-11-03T19:51:10.915Z,23.20
2017-11-03T19:53:38.003Z,23.03
2017-11-03T19:56:04.406Z,25.30
2017-11-03T19:58:31.611Z,26.40
2017-11-03T20:00:58.240Z,26.77
2017-11-03T20:03:24.927Z,22.00
2017-11-03T20:05:52.242Z,23.40
2017-11-03T20:08:18.682Z,20.63
2017-11-03T20:10:45.642Z,23.77
2017-11-03T20:13:12.793Z,19.97
2017-11-03T20:15:39.994Z,19.70
2017-11-03T20:18:06.658Z,17.97
2017-11-03T20:20:33.111Z,19.17
2017-11-03T20:23:00.295Z,23.57
2017-11-03T20:25:27.460Z,21.03
2017-11-03T20:27:53.969Z,20.13
2017-11-03T20:30:21.138Z,21.17
2017-11-03T20:32:47.562Z,20.57
2017-11-03T20:35:14.022Z,19.73
2017-11-03T20:37:40.579Z,19.60
2017-11-03T20:40:06.947Z,20.03
2017-11-03T20:42:34.185Z,20.37
2017-11-03T20:45:00.690Z,20.77
2017-11-03T20:47:27.034Z,21.47
2017-11-03T20:49:53.408Z,22.93
2017-11-03T20:52:19.938Z,21.73
2017-11-03T20:54:47.148Z,20.63
2017-11-03T20:57:13.510Z,20.47
2017-11-03T20:59:40.150Z,23.27
2017-11-03T21:02:06.522Z,24.60
2017-11-03T21:04:33.769Z,24.57
2017-11-03T21:07:00.346Z,25.23
2017-11-03T21:09:26.768Z,23.37
2017-11-03T21:11:54.377Z,22.10
2017-11-03T21:14:21.533Z,24.63
2017-11-03T21:16:47.997Z,24.20
2017-11-03T21:19:14.638Z,21.97
2017-11-03T21:21:41.240Z,22.70
2017-11-03T21:24:08.588Z,22.23
2017-11-03T21:26:35.762Z,21.30
2017-11-03T21:29:02.055Z,23.43
2017-11-03T21:31:29.406Z,22.07
2017-11-03T21:33:55.912Z,20.17
2017-11-03T21:36:22.420Z,21.20
2017-11-03T21:38:48.837Z,21.40
2017-11-03T21:41:15.924Z,22.83
2017-11-03T21:43:42.290Z,22.63
2017-11-03T21:46:08.852Z,24.23
2017-11-03T21:48:35.505Z,21.13
2017-11-03T21:51:02.793Z,22.87
2017-11-03T21:53:30.315Z,22.10
2017-11-03T21:55:57.504Z,22.37
2017-11-03T21:58:24.727Z,19.90
2017-11-03T22:00:53.279Z,23.80
2017-11-03T22:03:19.715Z,22.10
2017-11-03T22:05:46.127Z,23.03
2017-11-03T22:08:12.482Z,22.30
2017-11-03T22:10:39.584Z,21.17
2017-11-03T22:13:05.942Z,22.03
2017-11-03T22:15:32.399Z,20.63
2017-11-03T22:17:58.818Z,21.37
2017-11-03T22:20:25.285Z,20.97
2017-11-03T22:22:51.576Z,21.40
2017-11-03T22:25:17.956Z,21.83
2017-11-03T22:27:44.316Z,22.60
2017-11-03T22:30:11.010Z,22.37
2017-11-03T22:32:38.142Z,21.70
2017-11-03T22:35:05.339Z,22.73
2017-11-03T22:37:31.887Z,21.97
2017-11-03T22:39:58.425Z,22.13
2017-11-03T22:42:24.801Z,21.60
2017-11-03T22:44:51.105Z,22.73
2017-11-03T22:47:17.540Z,24.83
2017-11-03T22:49:43.869Z,22.17
2017-11-03T22:52:10.232Z,23.17
2017-11-03T22:54:36.776Z,23.10
2017-11-03T22:57:03.898Z,22.37
2017-11-03T22:59:30.210Z,22.53
2017-11-03T23:01:57.680Z,24.37
2017-11-03T23:04:24.054Z,24.87
2017-11-03T23:06:51.109Z,23.70
2017-11-03T23:09:18.297Z,23.80
2017-11-03T23:11:44.679Z,25.50
2017-11-03T23:14:11.751Z,26.03
2017-11-03T23:16:38.186Z,24.03
2017-11-03T23:19:04.620Z,24.73
2017-11-03T23:21:30.984Z,24.17
2017-11-03T23:23:57.344Z,24.83
2017-11-03T23:26:23.804Z,23.10
2017-11-03T23:28:50.181Z,23.90
2017-11-03T23:31:16.537Z,24.43
2017-11-03T23:33:43.007Z,26.07
2017-11-03T23:36:09.329Z,26.10
2017-11-03T23:38:36.894Z,27.07
2017-11-03T23:41:03.269Z,26.00
2017-11-03T23:43:29.701Z,23.30
2017-11-03T23:45:56.042Z,24.83
2017-11-03T23:48:22.429Z,25.20
2017-11-03T23:50:48.728Z,24.53
2017-11-03T23:53:15.231Z,23.93
2017-11-03T23:55:41.634Z,24.50
2017-11-03T23:58:08.020Z,25.20
